Time;durP1;ratioP1;P1;durP2;ratioP2;P2;SDS_P1;SDS_P2;PMS_P1;PMS_P2;Temp;Humidity;BMP_temperature;BMP_pressure;BME280_temperature;BME280_humidity;BME280_pressure;Samples;Min_cycle;Max_cycle;Signal;HPM_P1;HPM_P2
2023/05/10 00:00:28;;;;;;;4.70;4.30;;;;;;;11.57;100.00;95672.44;7392428;19;20503;-76
2023/05/10 00:02:55;;;;;;;5.10;4.70;;;;;;;11.53;100.00;95675.00;7395615;19;20430;-76
2023/05/10 00:05:22;;;;;;;5.20;4.70;;;;;;;11.57;100.00;95693.59;7394701;19;20375;-76
2023/05/10 00:07:49;;;;;;;4.93;4.50;;;;;;;11.59;100.00;95683.44;7396709;19;20461;-75
2023/05/10 00:10:15;;;;;;;5.83;4.70;;;;;;;11.52;100.00;95668.19;7397661;19;20801;-75
2023/05/10 00:12:43;;;;;;;9.80;5.17;;;;;;;11.61;100.00;95683.84;7402438;19;20936;-75
2023/05/10 00:15:10;;;;;;;5.53;4.03;;;;;;;11.54;100.00;95663.31;7401856;19;20385;-76
2023/05/10 00:17:37;;;;;;;5.10;4.70;;;;;;;11.61;100.00;95675.91;7402571;19;20397;-76
2023/05/10 00:20:05;;;;;;;4.93;4.53;;;;;;;11.45;100.00;95665.38;7400893;19;20397;-75
2023/05/10 00:22:32;;;;;;;5.80;4.30;;;;;;;11.34;100.00;95646.63;7399850;19;20381;-75
2023/05/10 00:24:59;;;;;;;4.23;3.93;;;;;;;11.52;100.00;95676.13;7401904;19;20555;-75
2023/05/10 00:27:26;;;;;;;5.53;4.60;;;;;;;11.36;100.00;95668.25;7400025;19;20373;-75
2023/05/10 00:29:53;;;;;;;5.83;4.87;;;;;;;11.27;100.00;95648.38;7399771;19;20449;-76
2023/05/10 00:32:20;;;;;;;5.60;3.70;;;;;;;11.47;100.00;95663.91;7399447;19;20881;-76
2023/05/10 00:34:47;;;;;;;8.83;5.20;;;;;;;11.12;100.00;95652.59;7400713;19;20384;-76
2023/05/10 00:37:14;;;;;;;7.90;4.20;;;;;;;11.02;100.00;95639.91;7399449;19;20384;-75
2023/05/10 00:39:41;;;;;;;4.67;4.27;;;;;;;11.28;100.00;95668.44;7399532;19;21027;-75
2023/05/10 00:42:08;;;;;;;4.13;3.83;;;;;;;11.22;100.00;95652.06;7399210;19;20380;-75
2023/05/10 00:44:35;;;;;;;5.00;4.40;;;;;;;11.20;100.00;95657.69;7400332;19;20379;-75
2023/05/10 00:47:02;;;;;;;5.23;4.73;;;;;;;10.98;100.00;95621.31;7399115;19;20753;-76
2023/05/10 00:49:29;;;;;;;4.43;4.00;;;;;;;11.22;100.00;95652.84;7399178;19;20436;-76
2023/05/10 00:51:57;;;;;;;5.07;4.60;;;;;;;11.07;100.00;95631.69;7399229;19;20380;-75
2023/05/10 00:54:24;;;;;;;4.87;4.47;;;;;;;10.93;100.00;95621.59;7402539;19;20431;-76
2023/05/10 00:56:51;;;;;;;4.53;4.23;;;;;;;11.09;100.00;95640.06;7399839;19;20444;-76
2023/05/10 00:59:19;;;;;;;4.47;4.07;;;;;;;11.05;100.00;95631.28;7398037;19;20400;-76
2023/05/10 01:01:46;;;;;;;4.30;3.90;;;;;;;11.09;100.00;95634.78;7399299;19;20404;-76
2023/05/10 01:04:14;;;;;;;4.80;4.40;;;;;;;11.18;100.00;95638.75;7402238;19;20388;-76
2023/05/10 01:06:41;;;;;;;4.43;4.07;;;;;;;11.22;100.00;95634.31;7398898;19;20404;-76
2023/05/10 01:09:08;;;;;;;4.80;4.37;;;;;;;11.16;100.00;95611.88;7399190;19;20444;-75
2023/05/10 01:11:37;;;;;;;5.10;4.70;;;;;;;11.21;100.00;95626.69;7398866;19;20384;-76
2023/05/10 01:14:05;;;;;;;4.70;4.40;;;;;;;11.13;100.00;95633.75;7399937;19;20369;-76
2023/05/10 01:16:38;;;;;;;4.30;4.00;;;;;;;11.10;100.00;95629.16;7400246;19;20740;-76
2023/05/10 01:19:11;;;;;;;4.23;3.83;;;;;;;11.17;100.00;95631.94;7398180;19;20453;-76
2023/05/10 01:21:44;;;;;;;6.63;4.30;;;;;;;11.17;100.00;95631.16;7400261;19;20352;-76
2023/05/10 01:24:50;;;;;;;4.70;4.30;;;;;;;11.17;100.00;95631.16;7397722;19;20405;-75
2023/05/10 01:27:19;;;;;;;5.43;4.03;;;;;;;11.12;100.00;95637.50;7394685;19;20782;-75
2023/05/10 01:30:13;;;;;;;4.37;4.07;;;;;;;11.22;100.00;95636.19;7395826;19;20443;-75
2023/05/10 01:32:56;;;;;;;4.50;4.20;;;;;;;11.25;100.00;95627.56;7397178;19;20352;-75
2023/05/10 01:35:32;;;;;;;4.30;4.00;;;;;;;11.18;100.00;95633.47;7398134;19;20392;-75
2023/05/10 01:38:10;;;;;;;5.50;5.00;;;;;;;10.99;100.00;95608.88;7394405;19;20482;-75
2023/05/10 01:40:51;;;;;;;8.60;4.50;;;;;;;11.00;100.00;95628.91;7394057;19;20994;-75
2023/05/10 01:43:26;;;;;;;4.53;4.03;;;;;;;11.05;100.00;95637.34;7397283;19;20921;-75
2023/05/10 01:46:10;;;;;;;7.20;3.80;;;;;;;11.03;100.00;95631.63;7397044;19;20404;-76
2023/05/10 01:48:48;;;;;;;4.80;4.40;;;;;;;10.88;100.00;95613.94;7396318;19;20349;-75
2023/05/10 01:51:19;;;;;;;8.23;4.37;;;;;;;11.12;100.00;95620.84;7399422;19;20421;-75
2023/05/10 01:53:48;;;;;;;4.73;4.33;;;;;;;10.88;100.00;95601.47;7397390;19;21040;-75
2023/05/10 01:56:16;;;;;;;4.47;4.07;;;;;;;11.10;100.00;95637.09;7398925;19;20413;-76
2023/05/10 01:58:48;;;;;;;4.43;4.10;;;;;;;11.28;100.00;95639.31;7396175;19;20957;-76
2023/05/10 02:01:16;;;;;;;4.00;3.60;;;;;;;11.13;100.00;95644.31;7399316;19;20920;-75
2023/05/10 02:03:44;;;;;;;5.10;4.13;;;;;;;11.10;100.00;95621.22;7397849;19;20433;-76
2023/05/10 02:06:13;;;;;;;4.77;4.30;;;;;;;10.99;100.00;95627.38;7400785;19;20341;-76
2023/05/10 02:08:41;;;;;;;4.13;3.73;;;;;;;10.91;100.00;95629.88;7397546;19;20385;-75
2023/05/10 02:11:12;;;;;;;4.80;4.40;;;;;;;11.05;100.00;95629.41;7396256;19;20425;-75
2023/05/10 02:13:39;;;;;;;5.53;5.00;;;;;;;10.93;100.00;95637.44;7397687;19;20919;-75
2023/05/10 02:16:08;;;;;;;5.97;4.47;;;;;;;10.92;100.00;95630.63;7399011;19;20397;-75
2023/05/10 02:18:36;;;;;;;4.40;4.00;;;;;;;11.01;100.00;95639.16;7393547;19;20352;-75
2023/05/10 02:21:04;;;;;;;10.23;5.20;;;;;;;11.15;100.00;95642.09;7396453;19;20721;-75
2023/05/10 02:23:31;;;;;;;4.60;4.17;;;;;;;11.21;100.00;95643.34;7397952;19;20756;-75
2023/05/10 02:26:01;;;;;;;5.30;4.90;;;;;;;10.90;100.00;95601.13;7398366;19;20393;-75
2023/05/10 02:28:29;;;;;;;5.67;4.40;;;;;;;11.15;100.00;95639.44;7398516;19;20400;-75
2023/05/10 02:30:57;;;;;;;4.03;3.47;;;;;;;11.00;100.00;95623.63;7403134;19;20408;-75
2023/05/10 02:33:25;;;;;;;7.03;4.90;;;;;;;10.85;100.00;95602.16;7412398;19;20376;-75
2023/05/10 02:35:53;;;;;;;4.67;4.23;;;;;;;10.94;100.00;95631.81;7406036;19;20396;-75
2023/05/10 02:38:22;;;;;;;4.60;4.20;;;;;;;10.89;100.00;95632.09;7398229;19;20400;-75
2023/05/10 02:40:50;;;;;;;7.70;4.90;;;;;;;10.85;100.00;95598.75;7395986;19;20805;-75
2023/05/10 02:43:18;;;;;;;4.60;4.20;;;;;;;10.90;100.00;95606.41;7397414;19;20400;-75
2023/05/10 02:45:47;;;;;;;4.60;4.20;;;;;;;10.95;100.00;95620.16;7396347;19;20401;-75
2023/05/10 02:48:15;;;;;;;5.73;5.23;;;;;;;10.83;100.00;95616.84;7397600;19;20437;-75
2023/05/10 02:50:51;;;;;;;6.40;4.80;;;;;;;10.75;100.00;95600.06;7393866;19;20785;-75
2023/05/10 02:53:28;;;;;;;4.00;3.70;;;;;;;11.06;100.00;95627.53;7397935;19;20371;-75
2023/05/10 02:55:59;;;;;;;4.63;4.27;;;;;;;10.95;100.00;95599.00;7396344;19;20397;-75
2023/05/10 02:58:26;;;;;;;5.00;4.50;;;;;;;10.86;100.00;95616.91;7394350;19;20383;-75
2023/05/10 03:00:53;;;;;;;5.10;4.60;;;;;;;10.87;100.00;95617.69;7396273;19;20348;-75
2023/05/10 03:03:20;;;;;;;5.97;4.53;;;;;;;10.78;100.00;95617.09;7394659;19;20966;-75
2023/05/10 03:05:49;;;;;;;4.90;4.50;;;;;;;10.93;100.00;95605.72;7397182;19;20698;-76
2023/05/10 03:08:16;;;;;;;7.10;6.03;;;;;;;10.99;100.00;95604.34;7397435;19;20385;-76
2023/05/10 03:11:01;;;;;;;5.93;5.40;;;;;;;10.93;100.00;95595.91;7394972;19;20421;-75
2023/05/10 03:13:48;;;;;;;5.43;5.03;;;;;;;11.03;100.00;95622.94;7395909;19;20369;-76
2023/05/10 03:16:22;;;;;;;4.50;4.10;;;;;;;10.93;100.00;95613.66;7396219;19;20885;-76
2023/05/10 03:19:01;;;;;;;4.30;4.00;;;;;;;10.92;100.00;95606.81;7395606;19;20385;-76
2023/05/10 03:21:29;;;;;;;5.30;4.50;;;;;;;11.21;100.00;95638.06;7395307;19;20372;-76
2023/05/10 03:24:06;;;;;;;6.70;4.63;;;;;;;11.28;100.00;95626.09;7397234;19;20741;-76
2023/05/10 03:26:36;;;;;;;4.73;4.33;;;;;;;10.91;100.00;95607.94;7395561;19;20393;-76
2023/05/10 03:29:10;;;;;;;4.97;4.57;;;;;;;10.91;100.00;95627.22;7393373;19;21012;-76
2023/05/10 03:31:38;;;;;;;5.20;4.80;;;;;;;10.77;100.00;95610.28;7396133;19;20369;-76
2023/05/10 03:34:06;;;;;;;5.23;4.40;;;;;;;10.79;100.00;95621.28;7394719;19;20364;-76
2023/05/10 03:36:33;;;;;;;4.50;4.00;;;;;;;10.74;100.00;95609.09;7395929;19;20352;-76
2023/05/10 03:39:00;;;;;;;5.03;4.57;;;;;;;10.44;100.00;95574.44;7392794;19;20510;-76
2023/05/10 03:41:27;;;;;;;4.90;4.50;;;;;;;10.77;100.00;95620.84;7395677;19;20373;-76
2023/05/10 03:43:54;;;;;;;5.17;4.77;;;;;;;10.65;100.00;95603.97;7397357;19;20383;-76
2023/05/10 03:46:21;;;;;;;5.10;4.60;;;;;;;10.77;100.00;95612.91;7403423;19;20387;-76
2023/05/10 03:48:48;;;;;;;5.57;5.17;;;;;;;10.74;100.00;95608.34;7400972;19;20416;-76
2023/05/10 03:51:15;;;;;;;5.13;4.73;;;;;;;10.79;100.00;95608.06;7403216;19;20388;-76
2023/05/10 03:53:42;;;;;;;4.40;4.00;;;;;;;10.84;100.00;95621.78;7403070;19;20365;-76
2023/05/10 03:56:08;;;;;;;4.90;4.50;;;;;;;10.74;100.00;95597.75;7402563;19;20768;-76
2023/05/10 03:58:35;;;;;;;5.07;4.60;;;;;;;10.84;100.00;95610.44;7400817;19;20379;-76
2023/05/10 04:01:03;;;;;;;5.63;4.87;;;;;;;10.74;100.00;95614.38;7403165;19;20418;-76
2023/05/10 04:03:30;;;;;;;5.00;4.50;;;;;;;10.72;100.00;95615.84;7401521;19;20484;-76
2023/05/10 04:06:00;;;;;;;5.87;4.87;;;;;;;10.84;100.00;95624.44;7402994;19;20439;-76
2023/05/10 04:08:28;;;;;;;4.07;3.77;;;;;;;10.75;100.00;95617.78;7403197;19;20767;-76
2023/05/10 04:11:07;;;;;;;4.60;4.20;;;;;;;10.85;100.00;95633.13;7402769;19;20793;-76
2023/05/10 04:13:34;;;;;;;5.40;4.90;;;;;;;10.78;100.00;95623.16;7401691;19;20352;-75
2023/05/10 04:16:01;;;;;;;4.40;4.10;;;;;;;10.55;100.00;95604.53;7403167;19;20360;-76
2023/05/10 04:18:28;;;;;;;5.43;5.03;;;;;;;10.68;100.00;95605.16;7402679;19;20869;-76
2023/05/10 04:20:55;;;;;;;5.13;4.60;;;;;;;10.61;100.00;95605.78;7400247;19;20389;-76
2023/05/10 04:23:23;;;;;;;10.60;6.03;;;;;;;10.47;100.00;95623.19;7401764;19;20405;-75
2023/05/10 04:25:50;;;;;;;5.20;4.80;;;;;;;10.49;100.00;95637.59;7398444;19;20328;-75
2023/05/10 04:28:17;;;;;;;5.23;4.27;;;;;;;10.39;100.00;95630.19;7401359;19;20410;-76
2023/05/10 04:30:43;;;;;;;5.37;4.97;;;;;;;10.24;100.00;95634.34;7396848;19;20957;-75
2023/05/10 04:33:10;;;;;;;5.27;4.87;;;;;;;10.34;100.00;95641.03;7402622;19;20341;-75
2023/05/10 04:35:38;;;;;;;6.03;4.57;;;;;;;10.23;100.00;95632.81;7400148;19;20377;-75
2023/05/10 04:38:05;;;;;;;5.70;4.77;;;;;;;10.29;100.00;95647.34;7399243;19;20437;-75
2023/05/10 04:40:32;;;;;;;6.13;5.60;;;;;;;10.24;100.00;95631.72;7398058;19;20436;-75
2023/05/10 04:42:59;;;;;;;5.73;4.97;;;;;;;10.05;100.00;95637.66;7401537;19;20345;-75
2023/05/10 04:45:26;;;;;;;6.20;5.60;;;;;;;9.98;100.00;95629.53;7401285;19;20392;-75
2023/05/10 04:47:53;;;;;;;5.67;5.17;;;;;;;9.99;100.00;95657.47;7401759;19;20369;-75
2023/05/10 04:50:20;;;;;;;5.63;5.13;;;;;;;10.13;100.00;95632.53;7397283;19;20993;-75
2023/05/10 04:52:46;;;;;;;8.03;5.00;;;;;;;10.13;100.00;95651.78;7402603;19;20354;-75
2023/05/10 04:55:13;;;;;;;6.20;5.60;;;;;;;10.05;100.00;95653.50;7397006;19;20333;-75
2023/05/10 04:57:40;;;;;;;5.93;5.43;;;;;;;9.95;100.00;95645.28;7401482;19;20433;-75
2023/05/10 05:00:08;;;;;;;5.73;5.23;;;;;;;9.72;100.00;95624.72;7406207;19;20428;-75
2023/05/10 05:02:35;;;;;;;6.37;4.53;;;;;;;9.89;100.00;95644.78;7431773;19;20389;-75
2023/05/10 05:05:02;;;;;;;6.77;5.63;;;;;;;10.34;100.00;95668.22;7433047;19;20376;-75
2023/05/10 05:07:30;;;;;;;7.00;5.97;;;;;;;10.46;100.00;95671.88;7427916;19;20408;-75
2023/05/10 05:09:57;;;;;;;5.67;5.17;;;;;;;10.53;100.00;95682.59;7401872;19;20408;-76
2023/05/10 05:12:24;;;;;;;5.87;5.37;;;;;;;10.46;100.00;95677.16;7402764;19;20396;-76
2023/05/10 05:14:51;;;;;;;5.80;5.30;;;;;;;10.26;100.00;95666.50;7401480;19;20700;-77
2023/05/10 05:17:18;;;;;;;7.53;6.73;;;;;;;10.20;100.00;95651.22;7401268;19;20355;-76
2023/05/10 05:19:45;;;;;;;6.30;5.70;;;;;;;10.15;100.00;95660.16;7397631;19;20443;-76
2023/05/10 05:22:12;;;;;;;7.67;6.97;;;;;;;10.30;100.00;95658.66;7400612;19;20375;-76
2023/05/10 05:24:39;;;;;;;6.67;5.93;;;;;;;10.33;100.00;95650.06;7400294;19;20410;-76
2023/05/10 05:27:06;;;;;;;7.70;6.00;;;;;;;10.16;100.00;95668.84;7402345;19;20779;-76
2023/05/10 05:29:33;;;;;;;6.87;5.80;;;;;;;10.23;100.00;95688.31;7397905;19;20500;-76
2023/05/10 05:32:00;;;;;;;7.67;7.03;;;;;;;10.31;100.00;95691.91;7400071;19;20397;-76
2023/05/10 05:34:28;;;;;;;9.63;5.93;;;;;;;10.38;100.00;95700.00;7398524;19;20469;-75
2023/05/10 05:36:55;;;;;;;8.07;6.80;;;;;;;10.21;100.00;95677.31;7400165;19;20372;-75
2023/05/10 05:39:22;;;;;;;7.10;6.50;;;;;;;10.30;100.00;95704.34;7398958;19;20419;-75
2023/05/10 05:41:49;;;;;;;6.30;5.80;;;;;;;10.32;100.00;95698.72;7399966;19;20435;-75
2023/05/10 05:44:16;;;;;;;6.83;6.23;;;;;;;10.30;100.00;95695.66;7398340;19;20492;-75
2023/05/10 05:46:42;;;;;;;7.00;6.30;;;;;;;9.71;100.00;95678.63;7400020;19;20394;-75
2023/05/10 05:49:09;;;;;;;7.20;6.47;;;;;;;9.77;100.00;95679.94;7397600;19;20436;-75
2023/05/10 05:51:36;;;;;;;7.30;6.60;;;;;;;9.83;100.00;95706.06;7399407;19;20360;-75
2023/05/10 05:54:04;;;;;;;6.90;6.30;;;;;;;9.90;100.00;95699.13;7398575;19;20385;-75
2023/05/10 05:56:31;;;;;;;8.43;6.90;;;;;;;9.88;100.00;95705.81;7399565;19;20819;-75
2023/05/10 05:58:57;;;;;;;8.20;7.40;;;;;;;9.58;100.00;95692.97;7396955;19;20426;-75
2023/05/10 06:01:24;;;;;;;9.03;8.00;;;;;;;9.44;100.00;95682.00;7399260;19;20808;-75
2023/05/10 06:03:51;;;;;;;8.80;8.00;;;;;;;9.64;100.00;95704.84;7398038;19;20372;-75
2023/05/10 06:06:19;;;;;;;9.27;7.07;;;;;;;9.75;100.00;95697.97;7398244;19;20377;-75
2023/05/10 06:08:46;;;;;;;11.50;9.57;;;;;;;9.91;100.00;95727.06;7396337;19;20782;-75
2023/05/10 06:11:13;;;;;;;8.43;7.60;;;;;;;9.43;100.00;95691.78;7396075;19;20882;-75
2023/05/10 06:13:39;;;;;;;7.57;6.87;;;;;;;9.58;100.00;95729.13;7397666;19;20419;-76
2023/05/10 06:16:06;;;;;;;8.30;7.50;;;;;;;9.54;100.00;95715.09;7398556;19;20409;-76
2023/05/10 06:18:34;;;;;;;8.33;7.53;;;;;;;9.52;100.00;95685.63;7398670;19;20348;-75
2023/05/10 06:21:01;;;;;;;8.97;8.07;;;;;;;9.75;100.00;95734.16;7394374;19;20409;-75
2023/05/10 06:23:28;;;;;;;9.60;8.70;;;;;;;9.83;100.00;95722.69;7397362;19;20896;-75
2023/05/10 06:25:55;;;;;;;7.70;6.90;;;;;;;10.00;100.00;95721.63;7397237;19;20353;-75
2023/05/10 06:28:22;;;;;;;9.40;7.73;;;;;;;10.04;100.00;95731.19;7398188;19;20381;-75
2023/05/10 06:30:49;;;;;;;8.93;7.90;;;;;;;9.83;100.00;95720.03;7395341;19;20801;-75
2023/05/10 06:33:16;;;;;;;8.53;7.70;;;;;;;9.64;100.00;95712.75;7399136;19;20394;-75
2023/05/10 06:35:43;;;;;;;9.07;8.27;;;;;;;9.92;100.00;95725.97;7395809;19;20401;-75
2023/05/10 06:38:10;;;;;;;8.70;7.93;;;;;;;9.54;100.00;95700.03;7397125;19;20376;-75
2023/05/10 06:40:41;;;;;;;8.23;7.43;;;;;;;9.85;100.00;95730.25;7393531;19;20430;-75
2023/05/10 06:43:08;;;;;;;10.23;8.73;;;;;;;10.02;100.00;95746.63;7397170;19;20373;-76
2023/05/10 06:45:35;;;;;;;8.93;8.03;;;;;;;10.10;100.00;95744.91;7396933;19;20402;-75
2023/05/10 06:48:02;;;;;;;9.27;8.47;;;;;;;10.15;100.00;95717.47;7397166;19;20396;-75
2023/05/10 06:50:29;;;;;;;8.40;7.70;;;;;;;10.14;100.00;95724.63;7395803;19;20403;-75
2023/05/10 06:52:56;;;;;;;10.13;9.17;;;;;;;10.16;100.00;95719.03;7397451;19;20468;-75
2023/05/10 06:55:23;;;;;;;11.17;8.60;;;;;;;10.32;100.00;95725.91;7395512;19;20389;-75
2023/05/10 06:57:50;;;;;;;9.83;8.83;;;;;;;10.52;100.00;95745.28;7396898;19;20364;-75
2023/05/10 07:00:18;;;;;;;10.13;9.17;;;;;;;10.38;100.00;95752.84;7393384;19;20442;-74
2023/05/10 07:02:46;;;;;;;13.60;9.73;;;;;;;10.42;100.00;95753.72;7393753;19;20361;-74
2023/05/10 07:05:14;;;;;;;10.30;9.40;;;;;;;10.31;100.00;95747.41;7395535;19;20376;-74
2023/05/10 07:07:42;;;;;;;10.77;9.77;;;;;;;10.34;100.00;95731.63;7397983;19;20431;-74
2023/05/10 07:10:09;;;;;;;9.83;8.87;;;;;;;10.32;100.00;95736.47;7395773;19;20455;-75
2023/05/10 07:12:36;;;;;;;10.20;9.20;;;;;;;10.54;100.00;95758.16;7394165;19;20433;-74
2023/05/10 07:15:04;;;;;;;11.10;9.30;;;;;;;10.42;100.00;95739.75;7395978;19;20784;-74
2023/05/10 07:17:33;;;;;;;10.50;8.73;;;;;;;10.53;100.00;95746.81;7396843;19;20379;-74
2023/05/10 07:20:00;;;;;;;12.30;9.53;;;;;;;10.64;100.00;95747.09;7393783;19;20444;-74
2023/05/10 07:22:27;;;;;;;9.63;8.73;;;;;;;10.77;100.00;95761.00;7396879;19;20444;-74
2023/05/10 07:24:54;;;;;;;13.03;9.53;;;;;;;10.78;100.00;95771.22;7396102;19;20412;-74
2023/05/10 07:27:21;;;;;;;10.30;9.27;;;;;;;10.74;100.00;95764.31;7393757;19;20451;-74
2023/05/10 07:29:48;;;;;;;9.60;8.70;;;;;;;10.63;100.00;95746.31;7394416;19;20449;-74
2023/05/10 07:32:15;;;;;;;9.77;8.77;;;;;;;10.69;100.00;95751.38;7393608;19;20397;-74
2023/05/10 07:34:42;;;;;;;11.27;9.40;;;;;;;10.83;100.00;95772.88;7397051;19;20362;-74
2023/05/10 07:37:09;;;;;;;8.83;8.03;;;;;;;10.84;100.00;95761.94;7392745;19;20389;-74
2023/05/10 07:39:36;;;;;;;9.80;8.40;;;;;;;10.82;100.00;95747.53;7401850;19;20449;-74
2023/05/10 07:42:03;;;;;;;11.13;10.13;;;;;;;10.93;100.00;95765.16;7403002;19;20419;-74
2023/05/10 07:44:30;;;;;;;8.67;7.70;;;;;;;11.02;100.00;95754.41;7394946;19;20385;-74
2023/05/10 07:46:56;;;;;;;9.70;8.80;;;;;;;11.30;100.00;95756.19;7393576;19;20412;-74
2023/05/10 07:49:24;;;;;;;10.20;9.20;;;;;;;10.94;100.00;95764.06;7393907;19;20416;-74
2023/05/10 07:51:51;;;;;;;10.50;9.60;;;;;;;10.98;100.00;95750.94;7393380;19;21032;-74
2023/05/10 07:54:18;;;;;;;11.17;10.00;;;;;;;11.33;100.00;95779.31;7395236;19;20443;-74
2023/05/10 07:56:46;;;;;;;10.67;9.67;;;;;;;11.58;100.00;95780.63;7394083;19;20936;-74
2023/05/10 07:59:17;;;;;;;9.53;8.63;;;;;;;11.74;100.00;95777.94;7394583;19;20757;-74
2023/05/10 08:01:45;;;;;;;10.00;9.10;;;;;;;11.79;100.00;95791.72;7391636;19;20754;-74
2023/05/10 08:04:12;;;;;;;9.63;8.83;;;;;;;11.50;100.00;95744.53;7395668;19;20396;-74
2023/05/10 08:06:40;;;;;;;9.30;8.50;;;;;;;11.80;100.00;95764.13;7393668;19;20503;-74
2023/05/10 08:09:07;;;;;;;10.33;9.33;;;;;;;11.54;100.00;95780.56;7395139;19;20432;-74
2023/05/10 08:11:35;;;;;;;8.60;7.50;;;;;;;11.37;100.00;95761.66;7394312;19;20928;-74
2023/05/10 08:14:02;;;;;;;9.43;8.60;;;;;;;11.82;100.00;95779.66;7395190;19;20377;-74
2023/05/10 08:16:28;;;;;;;9.33;8.43;;;;;;;11.67;100.00;95799.75;7394796;19;20377;-74
2023/05/10 08:18:56;;;;;;;9.20;8.40;;;;;;;11.63;100.00;95785.66;7394950;19;20441;-74
2023/05/10 08:21:23;;;;;;;9.40;8.50;;;;;;;11.78;100.00;95782.22;7392545;19;20498;-74
2023/05/10 08:23:50;;;;;;;9.20;8.40;;;;;;;12.11;100.00;95776.44;7396165;19;20734;-73
2023/05/10 08:26:17;;;;;;;10.23;8.80;;;;;;;12.02;100.00;95773.25;7393261;19;20357;-73
2023/05/10 08:28:43;;;;;;;8.20;7.50;;;;;;;12.78;100.00;95799.25;7394373;19;20385;-74
2023/05/10 08:31:10;;;;;;;7.83;7.03;;;;;;;13.17;100.00;95781.31;7398371;19;20349;-74
2023/05/10 08:33:37;;;;;;;11.00;6.87;;;;;;;13.30;100.00;95807.34;7402178;19;20384;-74
2023/05/10 08:36:04;;;;;;;8.80;8.00;;;;;;;12.76;100.00;95775.75;7400294;19;20397;-74
2023/05/10 08:38:31;;;;;;;8.50;7.80;;;;;;;12.46;100.00;95780.13;7401388;19;20731;-74
2023/05/10 08:40:59;;;;;;;8.63;7.60;;;;;;;12.86;100.00;95812.31;7398841;19;20376;-74
2023/05/10 08:43:29;;;;;;;7.87;7.10;;;;;;;12.53;100.00;95815.50;7401660;19;20383;-74
2023/05/10 08:46:02;;;;;;;8.50;7.70;;;;;;;12.12;100.00;95793.13;7400634;19;20404;-74
2023/05/10 08:48:30;;;;;;;7.40;6.80;;;;;;;11.87;100.00;95795.25;7398995;19;20407;-74
2023/05/10 08:51:00;;;;;;;7.37;6.67;;;;;;;12.41;100.00;95823.59;7400647;19;20391;-74
2023/05/10 08:53:30;;;;;;;6.13;5.53;;;;;;;12.10;100.00;95816.56;7400477;19;20894;-73
2023/05/10 08:55:57;;;;;;;7.07;6.47;;;;;;;11.98;100.00;95806.84;7401807;19;20410;-73
2023/05/10 08:58:25;;;;;;;8.20;7.40;;;;;;;12.12;100.00;95811.66;7399185;19;20414;-73
2023/05/10 09:00:52;;;;;;;8.27;7.43;;;;;;;11.58;100.00;95718.97;7401004;19;20763;-73
2023/05/10 09:03:20;;;;;;;6.73;6.23;;;;;;;12.25;100.00;95796.41;7398704;19;20359;-73
2023/05/10 09:05:48;;;;;;;6.73;6.20;;;;;;;12.10;100.00;95747.66;7400844;19;20381;-73
2023/05/10 09:08:18;;;;;;;7.40;5.40;;;;;;;12.18;100.00;95805.00;7400484;19;20788;-73
2023/05/10 09:10:47;;;;;;;7.93;5.70;;;;;;;12.51;100.00;95807.13;7398292;19;20456;-73
2023/05/10 09:13:15;;;;;;;6.87;6.27;;;;;;;12.92;100.00;95840.06;7400401;19;20417;-73
2023/05/10 09:15:44;;;;;;;7.40;6.70;;;;;;;12.99;100.00;95810.25;7402152;19;20360;-73
2023/05/10 09:18:12;;;;;;;6.80;3.77;;;;;;;13.03;100.00;95830.41;7399052;19;20380;-73
2023/05/10 09:20:40;;;;;;;6.17;4.63;;;;;;;13.21;100.00;95832.59;7398347;19;20453;-74
2023/05/10 09:23:07;;;;;;;5.10;4.70;;;;;;;13.40;100.00;95843.16;7398645;19;20722;-74
2023/05/10 09:25:34;;;;;;;4.47;4.07;;;;;;;13.35;100.00;95830.19;7401986;19;20348;-74
2023/05/10 09:28:01;;;;;;;5.00;4.40;;;;;;;12.50;100.00;95810.91;7398908;19;20393;-74
2023/05/10 09:30:30;;;;;;;3.97;3.67;;;;;;;13.07;100.00;95842.97;7398229;19;20445;-74
2023/05/10 09:32:59;;;;;;;13.23;5.23;;;;;;;12.85;100.00;95852.47;7398978;19;20422;-74
2023/05/10 09:35:28;;;;;;;3.73;3.43;;;;;;;12.92;100.00;95845.38;7397276;19;20373;-74
2023/05/10 09:37:59;;;;;;;3.67;3.30;;;;;;;13.21;100.00;95849.31;7398897;19;20370;-74
2023/05/10 09:40:28;;;;;;;4.50;4.10;;;;;;;12.95;100.00;95828.78;7395101;19;20957;-74
2023/05/10 09:43:00;;;;;;;3.60;3.40;;;;;;;13.49;100.00;95850.91;7398596;19;20345;-73
2023/05/10 09:45:32;;;;;;;3.50;3.30;;;;;;;13.58;100.00;95852.16;7397172;19;20392;-73
2023/05/10 09:48:03;;;;;;;3.47;2.23;;;;;;;13.83;100.00;95852.53;7401221;19;20332;-74
2023/05/10 09:50:30;;;;;;;3.37;2.60;;;;;;;14.39;100.00;95859.72;7395883;19;20523;-74
2023/05/10 09:53:03;;;;;;;1.90;1.80;;;;;;;14.40;100.00;95857.81;7399146;19;20442;-74
2023/05/10 09:55:40;;;;;;;2.63;2.43;;;;;;;14.11;100.00;95830.88;7399097;19;20345;-74
2023/05/10 09:58:10;;;;;;;2.57;1.93;;;;;;;13.96;100.00;95823.09;7399679;19;20407;-74
2023/05/10 10:00:40;;;;;;;1.90;1.80;;;;;;;13.71;100.00;95857.28;7397716;19;20428;-73
2023/05/10 10:03:13;;;;;;;1.90;1.80;;;;;;;13.77;100.00;95861.19;7396614;19;20794;-73
2023/05/10 10:05:42;;;;;;;1.57;1.47;;;;;;;13.56;100.00;95838.47;7397966;19;20998;-74
2023/05/10 10:08:10;;;;;;;1.87;1.60;;;;;;;13.29;100.00;95852.84;7398133;19;20937;-74
2023/05/10 10:10:38;;;;;;;1.90;1.70;;;;;;;13.46;100.00;95822.38;7396564;19;20492;-73
2023/05/10 10:13:05;;;;;;;1.67;1.57;;;;;;;13.75;100.00;95831.53;7396844;19;20393;-73
2023/05/10 10:15:34;;;;;;;2.30;2.03;;;;;;;14.05;100.00;95863.47;7398353;19;20372;-73
2023/05/10 10:18:03;;;;;;;1.37;1.27;;;;;;;13.81;100.00;95862.00;7397987;19;20424;-73
2023/05/10 10:20:31;;;;;;;1.40;1.30;;;;;;;14.28;100.00;95861.47;7396321;19;20405;-73
2023/05/10 10:22:58;;;;;;;1.50;1.40;;;;;;;14.52;100.00;95854.97;7396499;19;20885;-73
2023/05/10 10:25:25;;;;;;;1.70;1.60;;;;;;;14.52;100.00;95830.25;7397941;19;20401;-73
2023/05/10 10:27:52;;;;;;;1.30;1.20;;;;;;;14.33;100.00;95847.88;7396791;19;20415;-73
2023/05/10 10:30:46;;;;;;;1.73;1.20;;;;;;;14.21;100.00;95850.75;7398023;19;20413;-74
2023/05/10 10:33:25;;;;;;;1.30;1.20;;;;;;;13.94;100.00;95855.34;7397101;19;20380;-74
2023/05/10 10:35:57;;;;;;;1.30;1.20;;;;;;;13.58;100.00;95824.84;7397786;19;20360;-73
2023/05/10 10:38:24;;;;;;;1.30;1.20;;;;;;;13.61;100.00;95832.84;7396130;19;20428;-73
2023/05/10 10:41:03;;;;;;;1.30;1.20;;;;;;;13.82;100.00;95828.97;7401623;19;20364;-73
2023/05/10 10:43:30;;;;;;;1.67;1.30;;;;;;;13.65;100.00;95832.94;7433713;19;20392;-73
2023/05/10 10:46:19;;;;;;;1.30;1.20;;;;;;;14.25;100.00;95851.56;7428901;19;20368;-73
2023/05/10 10:49:09;;;;;;;1.23;1.13;;;;;;;14.36;100.00;95854.38;7417953;19;20377;-73
2023/05/10 10:51:39;;;;;;;1.20;1.10;;;;;;;14.66;100.00;95838.38;7400495;19;20934;-74
2023/05/10 10:54:10;;;;;;;1.40;1.30;;;;;;;14.81;100.00;95861.34;7395634;19;20405;-73
2023/05/10 10:56:37;;;;;;;1.50;1.40;;;;;;;15.06;100.00;95858.94;7395284;19;20389;-73
2023/05/10 10:59:04;;;;;;;1.50;1.40;;;;;;;14.51;100.00;95829.47;7395578;19;20442;-73
2023/05/10 11:01:35;;;;;;;3.43;1.17;;;;;;;14.76;100.00;95811.13;7394244;19;20385;-74
2023/05/10 11:04:05;;;;;;;5.63;2.23;;;;;;;15.00;100.00;95850.53;7397830;19;20361;-74
2023/05/10 11:06:34;;;;;;;3.67;1.23;;;;;;;14.81;100.00;95842.72;7394773;19;20443;-74
2023/05/10 11:09:08;;;;;;;1.07;0.97;;;;;;;14.22;100.00;95785.81;7395835;19;20960;-74
2023/05/10 11:11:36;;;;;;;5.40;1.10;;;;;;;14.75;100.00;95860.94;7395735;19;20443;-74
2023/05/10 11:14:05;;;;;;;1.07;1.00;;;;;;;14.72;100.00;95855.56;7397514;19;20421;-74
2023/05/10 11:16:43;;;;;;;2.33;1.23;;;;;;;14.56;100.00;95836.41;7396707;19;20394;-74
2023/05/10 11:19:12;;;;;;;1.17;1.00;;;;;;;15.47;100.00;95849.03;7399569;19;20404;-74
2023/05/10 11:22:13;;;;;;;1.77;1.10;;;;;;;15.10;100.00;95845.69;7394958;19;20941;-74
2023/05/10 11:24:55;;;;;;;1.50;1.40;;;;;;;15.31;100.00;95846.63;7395535;19;20345;-74
2023/05/10 11:27:22;;;;;;;1.47;1.13;;;;;;;15.24;100.00;95841.25;7393801;19;20385;-74
2023/05/10 11:29:52;;;;;;;1.20;1.10;;;;;;;15.28;100.00;95826.06;7395593;19;20986;-74
2023/05/10 11:32:19;;;;;;;1.20;1.10;;;;;;;15.27;100.00;95840.50;7394024;19;20381;-73